Butler Center, Indiana
Current Conditions -  °F | °C
As of 3:15 AM on Tuesday 27 Jan 2015 (Local Time) from KGWB Reporting Station
Scattered Clouds Scattered Clouds  
Wind Chill: 19°   Ceiling: Unl
Heat Index: 19°   Visibility: 10mi
Dew Point: 14°   Wind: 0mph
Humidity: 80%   Direction: NA
Pressure: 29.95"   Gusts: NA
Location:  41.3275°N, 85.1414°W
Report Text: KGWB 270815Z AUTO 00000KT 10SM SCT120 M07/M10 A2995 RMK AO2
Loading
Personal Weather Stations






























Interactive Weather Map New forecast layout! Learn more

10-Day Weather Forecast

Advertisements
Track Severe Weather on mobile